Etusivu
METAR-TAF:

METAR-TAF

Lentoasemat :

Dodge Center Airport (Dodge Center Municipal)

Dodge Center, Minnesota, Yhdysvallat

Leveyspiiri: 44-01-05N, Pituuspiiri: 092-49-53W, korkeus merenpinnasta: 398 m

Tämänhetkinen sää

Tämä raportti tehtiin 26 minuuttia sitten, kello 10.36 UTC
Tuuli 12 kn luoteesta
Lämpötila 5°C
Kosteus 60%
Ilmanpaine 1015 hPa
Näkyvyys: 16.1 km
selkeää

METAR: KTOB 261036Z AUTO 31012KT 10SM CLR 05/M02 A2996 RMK AO2

Aika: 06:02 (11:02 UTC)


TAF: puuttuu

Säähavainnot ja -ennusteet yli 4000 lentoasemalta (METAR- ja TAF-raportit).

Käytössä olevat sääasemat on merkitty karttaan keltaisilla ja punaisilla pisteillä.

Aseta hiiri pisteen päälle nähdäksesi sääaseman nimen.

Klikkaa sitten nähdäksesi säähavainnot ja -ennusteet.

Kartan vaihtaminen: klikkaa mustalla rastilla varustettuja vihreitä pisteitä, niin voit zoomata sisään; viivalla varustettua vihreää pistettä, niin voit zoomata ulos tai vihreitä nuolia, niin pääset viereisille kartoille.


METAR-TAF: